KCIC/CIC METAR and TAF weather

Enter ICAO airport designator
Station Type Date Time Source
KCIC METAR 2022/06/27 16:47 UTC NOAA

KCIC 271647Z VRB05KT 40SM CLR 27/09 A3003


Station Type Date Time Source
KCIC Decoded METAR 2022/06/27 16:47 UTC NOAA

Chico Municipal , CA, United States (KCIC) 39-48N 121-51W
Jun 27, 2022 - 12:47 PM EDT / 2022.06.27 1647 UTC
Wind: Variable at 6 MPH (5 KT):0
Visibility: 40 mile(s):0
Sky conditions: clear
Temperature: 80 F (27 C)
Dew Point: 48 F (9 C)
Relative Humidity: 32%
Pressure (altimeter): 30.03 in. Hg (1016 hPa)
ob: KCIC 271647Z VRB05KT 40SM CLR 27/09 A3003
cycle: 17

Station Type Date Time Source
KCIC TAF UTC NOAA

Error!

Example: see airport list